sensor_id;sensor_type;location;lat;lon;timestamp;pressure;altitude;pressure_sealevel;temperature;humidity
28289;BME280;15558;50.874;6.964;2022-09-25T00:02:09;100928.25;;;17.55;77.48
28289;BME280;15558;50.874;6.964;2022-09-25T00:04:35;100935.25;;;17.57;77.52
28289;BME280;15558;50.874;6.964;2022-09-25T00:07:01;100929.06;;;17.56;77.93
28289;BME280;15558;50.874;6.964;2022-09-25T00:09:27;100923.94;;;17.49;77.85
28289;BME280;15558;50.874;6.964;2022-09-25T00:11:53;100941.44;;;17.51;78.00
28289;BME280;15558;50.874;6.964;2022-09-25T00:14:18;100935.78;;;17.51;77.99
28289;BME280;15558;50.874;6.964;2022-09-25T00:16:44;100935.78;;;17.51;77.86
28289;BME280;15558;50.874;6.964;2022-09-25T00:19:19;100941.63;;;17.46;77.97
28289;BME280;15558;50.874;6.964;2022-09-25T00:22:04;100941.00;;;17.41;78.44
28289;BME280;15558;50.874;6.964;2022-09-25T00:24:30;100944.13;;;17.48;78.18
28289;BME280;15558;50.874;6.964;2022-09-25T00:26:56;100943.31;;;17.47;78.23
28289;BME280;15558;50.874;6.964;2022-09-25T00:29:24;100944.00;;;17.44;78.27
28289;BME280;15558;50.874;6.964;2022-09-25T00:31:50;100932.66;;;17.44;78.38
28289;BME280;15558;50.874;6.964;2022-09-25T00:34:16;100933.81;;;17.43;77.83
28289;BME280;15558;50.874;6.964;2022-09-25T00:36:42;100935.00;;;17.42;78.59
28289;BME280;15558;50.874;6.964;2022-09-25T00:39:08;100935.00;;;17.42;78.72
28289;BME280;15558;50.874;6.964;2022-09-25T00:41:34;100935.47;;;17.44;78.33
28289;BME280;15558;50.874;6.964;2022-09-25T00:44:02;100930.25;;;17.46;78.64
28289;BME280;15558;50.874;6.964;2022-09-25T00:46:40;100939.16;;;17.45;78.70
28289;BME280;15558;50.874;6.964;2022-09-25T00:49:15;100938.78;;;17.46;78.62
28289;BME280;15558;50.874;6.964;2022-09-25T00:51:49;100930.25;;;17.46;78.44
28289;BME280;15558;50.874;6.964;2022-09-25T00:54:23;100930.13;;;17.43;78.45
28289;BME280;15558;50.874;6.964;2022-09-25T00:56:51;100938.31;;;17.44;78.69
28289;BME280;15558;50.874;6.964;2022-09-25T00:59:21;100929.09;;;17.47;78.27
28289;BME280;15558;50.874;6.964;2022-09-25T01:01:49;100927.78;;;17.45;78.20
28289;BME280;15558;50.874;6.964;2022-09-25T01:04:15;100926.47;;;17.42;78.38
28289;BME280;15558;50.874;6.964;2022-09-25T01:06:43;100929.97;;;17.39;78.75
28289;BME280;15558;50.874;6.964;2022-09-25T01:09:08;100925.66;;;17.33;78.63
28289;BME280;15558;50.874;6.964;2022-09-25T01:11:34;100930.31;;;17.38;78.67
28289;BME280;15558;50.874;6.964;2022-09-25T01:14:02;100920.13;;;17.37;78.65
28289;BME280;15558;50.874;6.964;2022-09-25T01:16:41;100929.97;;;17.39;78.60
28289;BME280;15558;50.874;6.964;2022-09-25T01:27:40;100920.84;;;17.34;78.74
28289;BME280;15558;50.874;6.964;2022-09-25T01:30:14;100930.84;;;17.31;79.18
28289;BME280;15558;50.874;6.964;2022-09-25T01:35:46;100926.34;;;17.30;78.93
28289;BME280;15558;50.874;6.964;2022-09-25T01:38:37;100931.03;;;17.26;79.12
28289;BME280;15558;50.874;6.964;2022-09-25T01:41:16;100936.88;;;17.30;78.90
28289;BME280;15558;50.874;6.964;2022-09-25T01:46:21;100933.38;;;17.24;79.50
28289;BME280;15558;50.874;6.964;2022-09-25T01:48:54;100931.34;;;17.25;79.04
28289;BME280;15558;50.874;6.964;2022-09-25T01:51:25;100936.91;;;17.22;79.37
28289;BME280;15558;50.874;6.964;2022-09-25T01:53:54;100938.06;;;17.21;79.47
28289;BME280;15558;50.874;6.964;2022-09-25T01:56:25;100934.88;;;17.22;79.39
28289;BME280;15558;50.874;6.964;2022-09-25T01:59:09;100931.22;;;17.22;79.89
28289;BME280;15558;50.874;6.964;2022-09-25T02:01:40;100932.38;;;17.21;79.49
28289;BME280;15558;50.874;6.964;2022-09-25T02:04:11;100927.53;;;17.21;79.68
28289;BME280;15558;50.874;6.964;2022-09-25T02:06:40;100929.22;;;17.22;79.49
28289;BME280;15558;50.874;6.964;2022-09-25T02:09:13;100927.41;;;17.18;79.79
28289;BME280;15558;50.874;6.964;2022-09-25T02:11:44;100931.72;;;17.23;79.80
28289;BME280;15558;50.874;6.964;2022-09-25T02:14:22;100927.53;;;17.21;79.77
28289;BME280;15558;50.874;6.964;2022-09-25T02:16:53;100923.66;;;17.25;79.35
28289;BME280;15558;50.874;6.964;2022-09-25T02:19:21;100928.19;;;17.26;79.72
28289;BME280;15558;50.874;6.964;2022-09-25T02:22:14;100924.53;;;17.26;79.72
28289;BME280;15558;50.874;6.964;2022-09-25T02:24:45;100927.53;;;17.21;79.57
28289;BME280;15558;50.874;6.964;2022-09-25T02:27:13;100932.34;;;17.29;79.37
28289;BME280;15558;50.874;6.964;2022-09-25T02:29:40;100923.34;;;17.27;79.47
28289;BME280;15558;50.874;6.964;2022-09-25T02:32:09;100936.88;;;17.30;79.11
28289;BME280;15558;50.874;6.964;2022-09-25T02:34:36;100927.53;;;17.21;79.53
28289;BME280;15558;50.874;6.964;2022-09-25T02:37:08;100932.88;;;17.22;79.52
28289;BME280;15558;50.874;6.964;2022-09-25T02:39:34;100932.19;;;17.25;79.63
28289;BME280;15558;50.874;6.964;2022-09-25T02:42:15;100932.03;;;17.30;79.46
28289;BME280;15558;50.874;6.964;2022-09-25T02:50:29;100927.69;;;17.24;79.49
28289;BME280;15558;50.874;6.964;2022-09-25T02:53:06;100935.22;;;17.21;79.43
28289;BME280;15558;50.874;6.964;2022-09-25T02:55:38;100931.06;;;17.18;79.74
28289;BME280;15558;50.874;6.964;2022-09-25T02:58:07;100922.53;;;17.18;79.52
28289;BME280;15558;50.874;6.964;2022-09-25T03:00:36;100926.91;;;17.16;79.41
28289;BME280;15558;50.874;6.964;2022-09-25T03:03:07;100929.03;;;17.19;79.23
28289;BME280;15558;50.874;6.964;2022-09-25T03:05:35;100930.72;;;17.20;79.14
28289;BME280;15558;50.874;6.964;2022-09-25T03:08:02;100933.41;;;17.16;79.43
28289;BME280;15558;50.874;6.964;2022-09-25T03:10:47;100938.25;;;17.16;79.30
28289;BME280;15558;50.874;6.964;2022-09-25T03:15:45;100938.34;;;17.27;79.03
28289;BME280;15558;50.874;6.964;2022-09-25T03:18:12;100936.56;;;17.15;79.23
28289;BME280;15558;50.874;6.964;2022-09-25T03:20:39;100934.06;;;17.13;79.38
28289;BME280;15558;50.874;6.964;2022-09-25T03:23:05;100930.38;;;17.13;79.50
28289;BME280;15558;50.874;6.964;2022-09-25T03:25:32;100934.38;;;17.12;79.54
28289;BME280;15558;50.874;6.964;2022-09-25T03:27:58;100932.69;;;17.11;79.37
28289;BME280;15558;50.874;6.964;2022-09-25T03:30:24;100931.56;;;17.12;78.84
28289;BME280;15558;50.874;6.964;2022-09-25T03:32:50;100932.22;;;17.17;78.53
28289;BME280;15558;50.874;6.964;2022-09-25T03:35:16;100928.72;;;17.12;78.69
28289;BME280;15558;50.874;6.964;2022-09-25T03:37:42;100938.75;;;17.09;78.65
28289;BME280;15558;50.874;6.964;2022-09-25T03:40:08;100932.22;;;17.17;78.38
28289;BME280;15558;50.874;6.964;2022-09-25T03:42:34;100939.41;;;17.15;77.96
28289;BME280;15558;50.874;6.964;2022-09-25T03:45:01;100938.38;;;17.11;77.36
28289;BME280;15558;50.874;6.964;2022-09-25T03:47:26;100936.91;;;17.13;76.47
28289;BME280;15558;50.874;6.964;2022-09-25T03:49:52;100941.22;;;17.11;76.73
28289;BME280;15558;50.874;6.964;2022-09-25T03:52:18;100936.22;;;17.08;77.19
28289;BME280;15558;50.874;6.964;2022-09-25T03:54:44;100948.59;;;17.03;77.02
28289;BME280;15558;50.874;6.964;2022-09-25T03:57:11;100942.09;;;17.03;76.90
28289;BME280;15558;50.874;6.964;2022-09-25T03:59:39;100945.06;;;17.06;76.87
28289;BME280;15558;50.874;6.964;2022-09-25T04:02:05;100945.59;;;17.00;77.56
28289;BME280;15558;50.874;6.964;2022-09-25T04:04:31;100946.09;;;17.02;77.50
28289;BME280;15558;50.874;6.964;2022-09-25T04:06:57;100943.94;;;16.99;77.11
28289;BME280;15558;50.874;6.964;2022-09-25T04:09:23;100942.75;;;17.00;77.21
28289;BME280;15558;50.874;6.964;2022-09-25T04:11:49;100938.75;;;17.01;77.03
28289;BME280;15558;50.874;6.964;2022-09-25T04:14:15;100947.28;;;17.01;77.29
28289;BME280;15558;50.874;6.964;2022-09-25T04:16:41;100939.25;;;17.03;77.71
28289;BME280;15558;50.874;6.964;2022-09-25T04:19:08;100944.44;;;17.01;77.23
28289;BME280;15558;50.874;6.964;2022-09-25T04:21:34;100943.41;;;17.05;76.97
28289;BME280;15558;50.874;6.964;2022-09-25T04:24:00;100942.91;;;17.12;76.94
28289;BME280;15558;50.874;6.964;2022-09-25T04:26:45;100945.41;;;17.05;77.38
28289;BME280;15558;50.874;6.964;2022-09-25T04:29:11;100939.09;;;16.99;77.30
28289;BME280;15558;50.874;6.964;2022-09-25T04:31:39;100939.72;;;17.05;76.79
28289;BME280;15558;50.874;6.964;2022-09-25T04:34:05;100945.41;;;17.05;77.04
28289;BME280;15558;50.874;6.964;2022-09-25T04:36:31;100941.91;;;17.16;76.24
28289;BME280;15558;50.874;6.964;2022-09-25T04:38:57;100949.22;;;17.09;75.98
28289;BME280;15558;50.874;6.964;2022-09-25T04:41:23;100948.22;;;17.05;76.27
28289;BME280;15558;50.874;6.964;2022-09-25T04:43:49;100945.88;;;17.07;76.42
28289;BME280;15558;50.874;6.964;2022-09-25T04:46:15;100947.75;;;17.03;76.88
28289;BME280;15558;50.874;6.964;2022-09-25T04:48:43;100949.06;;;17.14;75.90
28289;BME280;15558;50.874;6.964;2022-09-25T04:51:10;100949.72;;;17.11;76.18
28289;BME280;15558;50.874;6.964;2022-09-25T04:53:36;100950.75;;;17.06;76.24
28289;BME280;15558;50.874;6.964;2022-09-25T04:56:05;100957.91;;;17.04;76.76
28289;BME280;15558;50.874;6.964;2022-09-25T04:58:33;100947.75;;;17.03;76.46
28289;BME280;15558;50.874;6.964;2022-09-25T05:01:08;100956.59;;;17.10;75.73
28289;BME280;15558;50.874;6.964;2022-09-25T05:03:34;100962.09;;;17.06;76.33
28289;BME280;15558;50.874;6.964;2022-09-25T05:05:59;100966.09;;;17.05;75.75
28289;BME280;15558;50.874;6.964;2022-09-25T05:08:26;100958.75;;;17.04;76.37
28289;BME280;15558;50.874;6.964;2022-09-25T05:10:52;100957.72;;;17.09;76.10
28289;BME280;15558;50.874;6.964;2022-09-25T05:13:18;100968.09;;;17.05;76.30
28289;BME280;15558;50.874;6.964;2022-09-25T05:15:44;100966.09;;;17.05;75.94
28289;BME280;15558;50.874;6.964;2022-09-25T05:18:21;100960.94;;;16.99;76.22
28289;BME280;15558;50.874;6.964;2022-09-25T05:20:48;100956.59;;;17.01;76.27
28289;BME280;15558;50.874;6.964;2022-09-25T05:23:14;100953.25;;;16.99;76.28
28289;BME280;15558;50.874;6.964;2022-09-25T05:25:40;100959.25;;;16.98;76.43
28289;BME280;15558;50.874;6.964;2022-09-25T05:28:08;100967.78;;;16.98;75.84
28289;BME280;15558;50.874;6.964;2022-09-25T05:30:35;100960.59;;;17.00;76.01
28289;BME280;15558;50.874;6.964;2022-09-25T05:33:01;100964.44;;;16.96;76.10
28289;BME280;15558;50.874;6.964;2022-09-25T05:35:29;100981.44;;;16.96;76.21
28289;BME280;15558;50.874;6.964;2022-09-25T05:37:55;100960.44;;;16.97;76.02
28289;BME280;15558;50.874;6.964;2022-09-25T05:40:22;100970.09;;;16.96;75.83
28289;BME280;15558;50.874;6.964;2022-09-25T05:42:49;100983.13;;;16.97;75.98
28289;BME280;15558;50.874;6.964;2022-09-25T05:45:16;100970.28;;;16.91;76.12
28289;BME280;15558;50.874;6.964;2022-09-25T05:47:42;100970.59;;;16.98;75.89
28289;BME280;15558;50.874;6.964;2022-09-25T05:50:11;100973.28;;;16.94;75.71
28289;BME280;15558;50.874;6.964;2022-09-25T05:52:38;100968.78;;;17.02;75.64
28289;BME280;15558;50.874;6.964;2022-09-25T05:55:04;100969.47;;;16.99;75.80
28289;BME280;15558;50.874;6.964;2022-09-25T05:57:31;100978.44;;;17.09;74.99
28289;BME280;15558;50.874;6.964;2022-09-25T05:59:57;100970.78;;;17.01;75.32
28289;BME280;15558;50.874;6.964;2022-09-25T06:02:24;100972.78;;;17.01;75.23
28289;BME280;15558;50.874;6.964;2022-09-25T06:04:50;100975.28;;;16.94;75.75
28289;BME280;15558;50.874;6.964;2022-09-25T06:07:16;100972.63;;;16.97;75.27
28289;BME280;15558;50.874;6.964;2022-09-25T06:09:42;100987.94;;;16.96;75.11
28289;BME280;15558;50.874;6.964;2022-09-25T06:12:07;100978.47;;;17.01;75.23
28289;BME280;15558;50.874;6.964;2022-09-25T06:14:33;100980.44;;;16.92;75.43
28289;BME280;15558;50.874;6.964;2022-09-25T06:17:02;100981.44;;;16.96;75.64
28289;BME280;15558;50.874;6.964;2022-09-25T06:19:29;100987.81;;;16.93;75.59
28289;BME280;15558;50.874;6.964;2022-09-25T06:21:55;100992.66;;;16.92;75.64
28289;BME280;15558;50.874;6.964;2022-09-25T06:24:24;100991.16;;;16.95;75.43
28289;BME280;15558;50.874;6.964;2022-09-25T06:26:50;100987.13;;;16.96;75.30
28289;BME280;15558;50.874;6.964;2022-09-25T06:29:16;100981.78;;;17.03;74.98
28289;BME280;15558;50.874;6.964;2022-09-25T06:31:42;100990.97;;;16.91;74.32
28289;BME280;15558;50.874;6.964;2022-09-25T06:34:08;100988.81;;;16.97;74.32
28289;BME280;15558;50.874;6.964;2022-09-25T06:36:35;100998.31;;;16.92;74.77
28289;BME280;15558;50.874;6.964;2022-09-25T06:39:01;101000.81;;;16.94;74.76
28289;BME280;15558;50.874;6.964;2022-09-25T06:41:27;101004.97;;;16.96;74.29
28289;BME280;15558;50.874;6.964;2022-09-25T06:43:54;101004.81;;;16.93;74.56
28289;BME280;15558;50.874;6.964;2022-09-25T06:46:20;101002.63;;;16.98;74.45
28289;BME280;15558;50.874;6.964;2022-09-25T06:48:53;101005.31;;;17.03;73.77
28289;BME280;15558;50.874;6.964;2022-09-25T06:51:21;101005.13;;;17.00;73.41
28289;BME280;15558;50.874;6.964;2022-09-25T06:53:47;100999.97;;;17.02;73.62
28289;BME280;15558;50.874;6.964;2022-09-25T06:56:13;101016.81;;;16.98;74.45
28289;BME280;15558;50.874;6.964;2022-09-25T06:58:39;101010.16;;;17.03;73.23
28289;BME280;15558;50.874;6.964;2022-09-25T07:01:05;101011.31;;;17.02;73.60
28289;BME280;15558;50.874;6.964;2022-09-25T07:03:35;101015.16;;;17.06;73.32
28289;BME280;15558;50.874;6.964;2022-09-25T07:06:21;101021.00;;;17.09;73.39
28289;BME280;15558;50.874;6.964;2022-09-25T07:08:49;101027.31;;;17.06;72.96
28289;BME280;15558;50.874;6.964;2022-09-25T07:11:20;101025.47;;;17.10;72.73
28289;BME280;15558;50.874;6.964;2022-09-25T07:13:47;101028.31;;;17.02;72.98
28289;BME280;15558;50.874;6.964;2022-09-25T07:16:21;101028.81;;;17.04;72.26
28289;BME280;15558;50.874;6.964;2022-09-25T07:18:48;101025.31;;;17.07;72.39
28289;BME280;15558;50.874;6.964;2022-09-25T07:21:17;101036.50;;;17.12;72.17
28289;BME280;15558;50.874;6.964;2022-09-25T07:23:46;101029.63;;;17.13;72.26
28289;BME280;15558;50.874;6.964;2022-09-25T07:26:15;101035.00;;;17.06;72.95
28289;BME280;15558;50.874;6.964;2022-09-25T07:28:51;101025.31;;;17.15;72.18
28289;BME280;15558;50.874;6.964;2022-09-25T07:31:22;101031.47;;;17.09;72.56
28289;BME280;15558;50.874;6.964;2022-09-25T07:33:48;101037.34;;;17.21;72.31
28289;BME280;15558;50.874;6.964;2022-09-25T07:36:15;101028.31;;;17.27;72.42
28289;BME280;15558;50.874;6.964;2022-09-25T07:38:42;101029.81;;;17.33;71.26
28289;BME280;15558;50.874;6.964;2022-09-25T07:41:09;101029.63;;;17.38;71.88
28289;BME280;15558;50.874;6.964;2022-09-25T07:43:36;101020.47;;;17.32;72.07
28289;BME280;15558;50.874;6.964;2022-09-25T07:46:05;101041.00;;;17.29;72.04
28289;BME280;15558;50.874;6.964;2022-09-25T07:48:31;101030.63;;;17.33;71.58
28289;BME280;15558;50.874;6.964;2022-09-25T07:51:05;101031.97;;;17.36;72.13
28289;BME280;15558;50.874;6.964;2022-09-25T07:53:32;101031.34;;;17.30;71.83
28289;BME280;15558;50.874;6.964;2022-09-25T07:55:59;101031.47;;;17.42;71.54
28289;BME280;15558;50.874;6.964;2022-09-25T07:58:26;101036.63;;;17.49;70.62
28289;BME280;15558;50.874;6.964;2022-09-25T08:00:53;101034.28;;;17.51;70.26
28289;BME280;15558;50.874;6.964;2022-09-25T08:03:20;101029.13;;;17.44;69.98
28289;BME280;15558;50.874;6.964;2022-09-25T08:05:46;101033.63;;;17.45;70.54
28289;BME280;15558;50.874;6.964;2022-09-25T08:08:12;101032.59;;;17.58;70.53
28289;BME280;15558;50.874;6.964;2022-09-25T08:10:38;101032.72;;;17.70;69.96
28289;BME280;15558;50.874;6.964;2022-09-25T08:13:04;101034.88;;;17.73;68.83
28289;BME280;15558;50.874;6.964;2022-09-25T08:15:30;101030.00;;;17.82;68.44
28289;BME280;15558;50.874;6.964;2022-09-25T08:17:56;101036.19;;;17.84;68.72
28289;BME280;15558;50.874;6.964;2022-09-25T08:20:22;101033.09;;;17.97;69.20
28289;BME280;15558;50.874;6.964;2022-09-25T08:22:52;101035.06;;;18.05;68.02
28289;BME280;15558;50.874;6.964;2022-09-25T08:25:18;101030.69;;;18.16;68.44
28289;BME280;15558;50.874;6.964;2022-09-25T08:27:44;101037.84;;;18.22;68.56
28289;BME280;15558;50.874;6.964;2022-09-25T08:30:10;101045.19;;;18.23;67.00
28289;BME280;15558;50.874;6.964;2022-09-25T08:32:37;101040.84;;;18.25;66.95
28289;BME280;15558;50.874;6.964;2022-09-25T08:35:03;101044.97;;;18.36;66.77
28289;BME280;15558;50.874;6.964;2022-09-25T08:37:29;101046.97;;;18.35;66.17
28289;BME280;15558;50.874;6.964;2022-09-25T08:39:58;101046.28;;;18.38;66.65
28289;BME280;15558;50.874;6.964;2022-09-25T08:42:34;101047.00;;;18.56;65.02
28289;BME280;15558;50.874;6.964;2022-09-25T08:45:06;101047.47;;;18.58;65.81
28289;BME280;15558;50.874;6.964;2022-09-25T08:47:54;101042.09;;;18.64;65.98
28289;BME280;15558;50.874;6.964;2022-09-25T08:50:40;101035.78;;;18.79;64.86
28289;BME280;15558;50.874;6.964;2022-09-25T08:53:16;101048.75;;;18.89;64.64
28289;BME280;15558;50.874;6.964;2022-09-25T08:55:44;101039.59;;;19.24;63.66
28289;BME280;15558;50.874;6.964;2022-09-25T08:58:31;101042.06;;;19.57;62.84
28289;BME280;15558;50.874;6.964;2022-09-25T09:01:05;101044.25;;;19.60;61.44
28289;BME280;15558;50.874;6.964;2022-09-25T09:03:32;101040.69;;;19.63;59.47
28289;BME280;15558;50.874;6.964;2022-09-25T09:06:06;101044.69;;;19.50;60.68
28289;BME280;15558;50.874;6.964;2022-09-25T09:08:34;101040.28;;;19.53;60.85
28289;BME280;15558;50.874;6.964;2022-09-25T09:11:22;101036.56;;;19.40;60.53
28289;BME280;15558;50.874;6.964;2022-09-25T09:14:05;101032.69;;;19.45;61.45
28289;BME280;15558;50.874;6.964;2022-09-25T09:16:58;101030.44;;;19.50;60.69
28289;BME280;15558;50.874;6.964;2022-09-25T09:19:25;101031.13;;;19.79;59.57
28289;BME280;15558;50.874;6.964;2022-09-25T09:22:02;101024.41;;;20.07;59.08
28289;BME280;15558;50.874;6.964;2022-09-25T09:30:50;101038.06;;;20.38;56.45
28289;BME280;15558;50.874;6.964;2022-09-25T09:33:56;101041.63;;;20.35;55.34
28289;BME280;15558;50.874;6.964;2022-09-25T09:36:49;101028.47;;;20.30;54.21
28289;BME280;15558;50.874;6.964;2022-09-25T09:39:43;101027.38;;;20.23;54.64
28289;BME280;15558;50.874;6.964;2022-09-25T09:42:36;101027.03;;;20.24;55.29
28289;BME280;15558;50.874;6.964;2022-09-25T09:48:04;101040.56;;;20.15;56.09
28289;BME280;15558;50.874;6.964;2022-09-25T09:50:53;101029.13;;;19.92;57.22
28289;BME280;15558;50.874;6.964;2022-09-25T09:53:28;101040.09;;;19.69;58.18
28289;BME280;15558;50.874;6.964;2022-09-25T09:56:01;101030.53;;;19.74;58.02
28289;BME280;15558;50.874;6.964;2022-09-25T10:00:59;101031.28;;;19.95;57.93
28289;BME280;15558;50.874;6.964;2022-09-25T10:03:28;101020.50;;;20.12;57.53
28289;BME280;15558;50.874;6.964;2022-09-25T10:06:01;101017.75;;;20.27;56.37
28289;BME280;15558;50.874;6.964;2022-09-25T10:08:28;101011.06;;;20.71;55.38
28289;BME280;15558;50.874;6.964;2022-09-25T10:10:54;101004.22;;;20.99;54.11
28289;BME280;15558;50.874;6.964;2022-09-25T10:13:33;101008.97;;;21.34;53.24
28289;BME280;15558;50.874;6.964;2022-09-25T10:16:03;101004.50;;;21.48;50.50
28289;BME280;15558;50.874;6.964;2022-09-25T10:18:35;100999.75;;;21.82;49.08
28289;BME280;15558;50.874;6.964;2022-09-25T10:21:10;101005.38;;;22.10;50.41
28289;BME280;15558;50.874;6.964;2022-09-25T10:23:46;101004.59;;;22.24;48.68
28289;BME280;15558;50.874;6.964;2022-09-25T10:26:36;100998.38;;;22.07;48.74
28289;BME280;15558;50.874;6.964;2022-09-25T10:31:37;101005.22;;;21.45;49.27
28289;BME280;15558;50.874;6.964;2022-09-25T10:36:40;101005.41;;;21.25;50.44
28289;BME280;15558;50.874;6.964;2022-09-25T10:39:29;101003.25;;;21.07;50.32
28289;BME280;15558;50.874;6.964;2022-09-25T10:41:57;101005.56;;;20.89;51.59
28289;BME280;15558;50.874;6.964;2022-09-25T10:44:35;101002.28;;;20.76;50.75
28289;BME280;15558;50.874;6.964;2022-09-25T10:50:24;101005.47;;;20.74;49.17
28289;BME280;15558;50.874;6.964;2022-09-25T10:52:53;101006.09;;;20.68;49.49
28289;BME280;15558;50.874;6.964;2022-09-25T10:55:25;101000.75;;;20.66;49.78
28289;BME280;15558;50.874;6.964;2022-09-25T11:00:30;101004.66;;;20.74;51.73
28289;BME280;15558;50.874;6.964;2022-09-25T11:03:03;100994.28;;;20.81;50.15
28289;BME280;15558;50.874;6.964;2022-09-25T11:05:33;100996.50;;;20.87;49.09
28289;BME280;15558;50.874;6.964;2022-09-25T11:08:03;101005.94;;;20.88;47.86
28289;BME280;15558;50.874;6.964;2022-09-25T11:10:34;101000.53;;;20.98;47.55
28289;BME280;15558;50.874;6.964;2022-09-25T11:13:07;101000.53;;;20.98;46.08
28289;BME280;15558;50.874;6.964;2022-09-25T11:15:35;101002.88;;;21.08;46.94
28289;BME280;15558;50.874;6.964;2022-09-25T11:18:03;101002.59;;;20.86;46.61
28289;BME280;15558;50.874;6.964;2022-09-25T11:20:31;101005.66;;;20.93;48.26
28289;BME280;15558;50.874;6.964;2022-09-25T11:25:39;100997.16;;;21.08;45.81
28289;BME280;15558;50.874;6.964;2022-09-25T11:36:59;100989.75;;;21.19;49.01
28289;BME280;15558;50.874;6.964;2022-09-25T11:42:52;100991.06;;;21.21;47.31
28289;BME280;15558;50.874;6.964;2022-09-25T11:45:28;100992.53;;;21.31;46.50
28289;BME280;15558;50.874;6.964;2022-09-25T11:58:36;100968.88;;;22.18;43.32
28289;BME280;15558;50.874;6.964;2022-09-25T12:12:27;100959.03;;;22.50;42.41
28289;BME280;15558;50.874;6.964;2022-09-25T12:20:02;100962.50;;;22.25;41.97
28289;BME280;15558;50.874;6.964;2022-09-25T12:25:31;100953.31;;;22.16;43.05
28289;BME280;15558;50.874;6.964;2022-09-25T12:36:06;100947.97;;;22.15;43.87
28289;BME280;15558;50.874;6.964;2022-09-25T12:38:45;100933.09;;;21.94;43.25
28289;BME280;15558;50.874;6.964;2022-09-25T12:46:42;100946.81;;;21.43;44.79
28289;BME280;15558;50.874;6.964;2022-09-25T12:49:14;100941.00;;;21.39;42.04
28289;BME280;15558;50.874;6.964;2022-09-25T12:51:48;100932.41;;;21.39;41.33
28289;BME280;15558;50.874;6.964;2022-09-25T12:57:15;100926.38;;;21.56;43.12
28289;BME280;15558;50.874;6.964;2022-09-25T13:02:18;100924.16;;;21.80;44.69
28289;BME280;15558;50.874;6.964;2022-09-25T13:07:38;100918.81;;;21.63;44.53
28289;BME280;15558;50.874;6.964;2022-09-25T13:10:30;100919.81;;;21.55;46.21
28289;BME280;15558;50.874;6.964;2022-09-25T13:12:59;100918.88;;;21.51;44.68
28289;BME280;15558;50.874;6.964;2022-09-25T13:15:32;100916.13;;;21.40;44.91
28289;BME280;15558;50.874;6.964;2022-09-25T13:18:00;100911.34;;;21.44;44.72
28289;BME280;15558;50.874;6.964;2022-09-25T13:20:51;100905.94;;;21.27;44.38
28289;BME280;15558;50.874;6.964;2022-09-25T13:23:27;100902.78;;;21.16;46.41
28289;BME280;15558;50.874;6.964;2022-09-25T13:26:00;100900.31;;;21.15;45.11
28289;BME280;15558;50.874;6.964;2022-09-25T13:28:33;100892.84;;;21.26;45.02
28289;BME280;15558;50.874;6.964;2022-09-25T13:31:24;100893.16;;;21.36;41.84
28289;BME280;15558;50.874;6.964;2022-09-25T13:34:05;100884.88;;;21.31;43.68
28289;BME280;15558;50.874;6.964;2022-09-25T13:36:38;100880.50;;;21.37;43.20
28289;BME280;15558;50.874;6.964;2022-09-25T13:39:26;100881.88;;;21.40;44.52
28289;BME280;15558;50.874;6.964;2022-09-25T13:42:27;100882.50;;;21.48;41.70
28289;BME280;15558;50.874;6.964;2022-09-25T13:47:54;100878.72;;;21.45;42.79
28289;BME280;15558;50.874;6.964;2022-09-25T13:50:23;100880.09;;;21.50;42.29
28289;BME280;15558;50.874;6.964;2022-09-25T13:58:21;100875.13;;;21.47;42.00
28289;BME280;15558;50.874;6.964;2022-09-25T14:03:41;100870.78;;;21.53;42.16
28289;BME280;15558;50.874;6.964;2022-09-25T14:06:25;100870.25;;;21.48;42.35
28289;BME280;15558;50.874;6.964;2022-09-25T14:08:55;100873.19;;;21.51;43.07
28289;BME280;15558;50.874;6.964;2022-09-25T14:11:29;100872.34;;;21.51;42.45
28289;BME280;15558;50.874;6.964;2022-09-25T14:14:01;100875.78;;;21.56;43.48
28289;BME280;15558;50.874;6.964;2022-09-25T14:18:59;100867.84;;;21.65;42.32
28289;BME280;15558;50.874;6.964;2022-09-25T14:21:27;100868.94;;;21.61;41.77
28289;BME280;15558;50.874;6.964;2022-09-25T14:23:56;100871.16;;;21.67;40.73
28289;BME280;15558;50.874;6.964;2022-09-25T14:26:25;100869.69;;;21.73;41.26
28289;BME280;15558;50.874;6.964;2022-09-25T14:28:56;100863.88;;;21.70;41.41
28289;BME280;15558;50.874;6.964;2022-09-25T14:36:39;100858.63;;;21.56;41.78
28289;BME280;15558;50.874;6.964;2022-09-25T14:45:19;100856.38;;;21.35;41.39
28289;BME280;15558;50.874;6.964;2022-09-25T14:47:48;100857.03;;;21.28;41.57
28289;BME280;15558;50.874;6.964;2022-09-25T14:50:28;100859.41;;;21.26;42.80
28289;BME280;15558;50.874;6.964;2022-09-25T14:53:03;100857.78;;;21.25;41.59
28289;BME280;15558;50.874;6.964;2022-09-25T14:55:39;100863.91;;;21.12;43.15
28289;BME280;15558;50.874;6.964;2022-09-25T14:58:08;100861.81;;;21.09;43.58
28289;BME280;15558;50.874;6.964;2022-09-25T15:00:44;100854.75;;;20.91;45.94
28289;BME280;15558;50.874;6.964;2022-09-25T15:03:13;100849.59;;;20.81;44.70
28289;BME280;15558;50.874;6.964;2022-09-25T15:05:45;100853.00;;;20.87;44.50
28289;BME280;15558;50.874;6.964;2022-09-25T15:08:37;100835.16;;;20.90;44.48
28289;BME280;15558;50.874;6.964;2022-09-25T15:13:37;100828.91;;;21.00;42.62
28289;BME280;15558;50.874;6.964;2022-09-25T15:16:04;100824.47;;;20.87;45.01
28289;BME280;15558;50.874;6.964;2022-09-25T15:18:52;100837.38;;;20.96;45.50
28289;BME280;15558;50.874;6.964;2022-09-25T15:21:26;100837.72;;;20.79;44.97
28289;BME280;15558;50.874;6.964;2022-09-25T15:23:56;100827.22;;;20.83;45.12
28289;BME280;15558;50.874;6.964;2022-09-25T15:26:23;100829.63;;;20.81;45.08
28289;BME280;15558;50.874;6.964;2022-09-25T15:28:53;100830.34;;;20.78;45.83